sensor_id;sensor_type;location;lat;lon;timestamp;pressure;altitude;pressure_sealevel;temperature;humidity
19795;BME280;10057;59.402;17.866;2023-03-04T00:02:26;100134.66;;;0.97;42.41
19795;BME280;10057;59.402;17.866;2023-03-04T00:04:52;100124.22;;;0.93;42.33
19795;BME280;10057;59.402;17.866;2023-03-04T00:07:19;100119.88;;;0.92;42.61
19795;BME280;10057;59.402;17.866;2023-03-04T00:09:46;100124.25;;;0.87;42.46
19795;BME280;10057;59.402;17.866;2023-03-04T00:12:13;100132.97;;;0.85;42.53
19795;BME280;10057;59.402;17.866;2023-03-04T00:14:40;100115.59;;;0.82;42.66
19795;BME280;10057;59.402;17.866;2023-03-04T00:17:07;100124.31;;;0.78;42.91
19795;BME280;10057;59.402;17.866;2023-03-04T00:19:34;100127.81;;;0.77;42.69
19795;BME280;10057;59.402;17.866;2023-03-04T00:22:02;100113.88;;;0.75;42.68
19795;BME280;10057;59.402;17.866;2023-03-04T00:24:30;100120.88;;;0.73;42.72
19795;BME280;10057;59.402;17.866;2023-03-04T00:26:56;100122.63;;;0.71;42.95
19795;BME280;10057;59.402;17.866;2023-03-04T00:29:23;100116.53;;;0.70;42.77
19795;BME280;10057;59.402;17.866;2023-03-04T00:31:50;100124.38;;;0.67;42.75
19795;BME280;10057;59.402;17.866;2023-03-04T00:34:16;100139.22;;;0.64;42.52
19795;BME280;10057;59.402;17.866;2023-03-04T00:36:43;100126.19;;;0.61;42.69
19795;BME280;10057;59.402;17.866;2023-03-04T00:39:10;100120.09;;;0.57;43.08
19795;BME280;10057;59.402;17.866;2023-03-04T00:41:38;100131.44;;;0.56;43.03
19795;BME280;10057;59.402;17.866;2023-03-04T00:44:05;100121.88;;;0.54;43.39
19795;BME280;10057;59.402;17.866;2023-03-04T00:46:32;100127.09;;;0.51;43.25
19795;BME280;10057;59.402;17.866;2023-03-04T00:48:58;100128.88;;;0.47;43.85
19795;BME280;10057;59.402;17.866;2023-03-04T00:51:25;100131.50;;;0.42;43.49
19795;BME280;10057;59.402;17.866;2023-03-04T00:53:52;100117.63;;;0.39;43.41
19795;BME280;10057;59.402;17.866;2023-03-04T00:56:18;100127.19;;;0.38;43.28
19795;BME280;10057;59.402;17.866;2023-03-04T00:58:45;100119.38;;;0.35;43.50
19795;BME280;10057;59.402;17.866;2023-03-04T01:01:11;100116.75;;;0.34;43.39
19795;BME280;10057;59.402;17.866;2023-03-04T01:03:38;100125.47;;;0.30;43.72
19795;BME280;10057;59.402;17.866;2023-03-04T01:06:07;100119.44;;;0.28;43.95
19795;BME280;10057;59.402;17.866;2023-03-04T01:08:34;100119.41;;;0.26;43.73
19795;BME280;10057;59.402;17.866;2023-03-04T01:11:01;100133.34;;;0.23;43.83
19795;BME280;10057;59.402;17.866;2023-03-04T01:13:28;100128.13;;;0.22;43.78
19795;BME280;10057;59.402;17.866;2023-03-04T01:15:55;100149.91;;;0.21;44.02
19795;BME280;10057;59.402;17.866;2023-03-04T01:18:23;100128.16;;;0.19;43.90
19795;BME280;10057;59.402;17.866;2023-03-04T01:20:50;100127.28;;;0.17;43.78
19795;BME280;10057;59.402;17.866;2023-03-04T01:23:16;100142.94;;;0.15;43.82
19795;BME280;10057;59.402;17.866;2023-03-04T01:25:43;100132.53;;;0.12;43.99
19795;BME280;10057;59.402;17.866;2023-03-04T01:28:10;100143.84;;;0.10;43.99
19795;BME280;10057;59.402;17.866;2023-03-04T01:30:36;100142.97;;;0.06;44.16
19795;BME280;10057;59.402;17.866;2023-03-04T01:33:03;100138.63;;;0.07;44.20
19795;BME280;10057;59.402;17.866;2023-03-04T01:35:30;100137.75;;;0.06;44.20
19795;BME280;10057;59.402;17.866;2023-03-04T01:37:56;100145.59;;;0.05;44.01
19795;BME280;10057;59.402;17.866;2023-03-04T01:40:23;100135.19;;;0.02;44.40
19795;BME280;10057;59.402;17.866;2023-03-04T01:42:50;100123.88;;;-0.01;44.32
19795;BME280;10057;59.402;17.866;2023-03-04T01:45:18;100142.13;;;-0.04;44.44
19795;BME280;10057;59.402;17.866;2023-03-04T01:47:47;100131.72;;;-0.05;44.29
19795;BME280;10057;59.402;17.866;2023-03-04T01:50:31;100153.47;;;-0.09;44.40
19795;BME280;10057;59.402;17.866;2023-03-04T01:52:59;100126.53;;;-0.14;44.14
19795;BME280;10057;59.402;17.866;2023-03-04T01:55:28;100141.31;;;-0.18;44.01
19795;BME280;10057;59.402;17.866;2023-03-04T01:57:55;100147.41;;;-0.19;44.12
19795;BME280;10057;59.402;17.866;2023-03-04T02:00:28;100113.53;;;-0.20;43.84
19795;BME280;10057;59.402;17.866;2023-03-04T02:02:59;100126.56;;;-0.22;44.07
19795;BME280;10057;59.402;17.866;2023-03-04T02:05:27;100144.84;;;-0.23;43.96
19795;BME280;10057;59.402;17.866;2023-03-04T02:07:56;100116.16;;;-0.28;43.83
19795;BME280;10057;59.402;17.866;2023-03-04T02:10:23;100112.69;;;-0.30;43.52
19795;BME280;10057;59.402;17.866;2023-03-04T02:12:51;100118.78;;;-0.33;43.47
19795;BME280;10057;59.402;17.866;2023-03-04T02:15:18;100114.44;;;-0.35;43.45
19795;BME280;10057;59.402;17.866;2023-03-04T02:17:45;100111.84;;;-0.38;43.32
19795;BME280;10057;59.402;17.866;2023-03-04T02:20:27;100110.13;;;-0.39;42.94
19795;BME280;10057;59.402;17.866;2023-03-04T02:28:40;100109.22;;;-0.41;41.57
19795;BME280;10057;59.402;17.866;2023-03-04T02:31:21;100111.84;;;-0.41;41.59
19795;BME280;10057;59.402;17.866;2023-03-04T02:33:49;100110.97;;;-0.42;41.37
19795;BME280;10057;59.402;17.866;2023-03-04T02:36:16;100116.22;;;-0.43;41.92
19795;BME280;10057;59.402;17.866;2023-03-04T02:38:43;100102.31;;;-0.45;41.99
19795;BME280;10057;59.402;17.866;2023-03-04T02:41:13;100103.16;;;-0.48;42.26
19795;BME280;10057;59.402;17.866;2023-03-04T02:43:43;100122.31;;;-0.51;42.67
19795;BME280;10057;59.402;17.866;2023-03-04T02:46:11;100121.44;;;-0.51;41.58
19795;BME280;10057;59.402;17.866;2023-03-04T02:48:38;100118.84;;;-0.51;41.81
19795;BME280;10057;59.402;17.866;2023-03-04T02:51:05;100110.13;;;-0.52;40.24
19795;BME280;10057;59.402;17.866;2023-03-04T02:53:32;100110.13;;;-0.50;40.66
19795;BME280;10057;59.402;17.866;2023-03-04T02:55:58;100121.44;;;-0.50;41.09
19795;BME280;10057;59.402;17.866;2023-03-04T02:58:25;100130.97;;;-0.49;41.15
19795;BME280;10057;59.402;17.866;2023-03-04T03:00:52;100119.69;;;-0.47;40.97
19795;BME280;10057;59.402;17.866;2023-03-04T03:03:18;100126.63;;;-0.50;41.25
19795;BME280;10057;59.402;17.866;2023-03-04T03:05:45;100125.75;;;-0.45;41.54
19795;BME280;10057;59.402;17.866;2023-03-04T03:08:12;100129.22;;;-0.45;41.45
19795;BME280;10057;59.402;17.866;2023-03-04T03:10:39;100115.34;;;-0.49;40.56
19795;BME280;10057;59.402;17.866;2023-03-04T03:13:05;100121.44;;;-0.54;40.87
19795;BME280;10057;59.402;17.866;2023-03-04T03:15:32;100117.09;;;-0.58;40.31
19795;BME280;10057;59.402;17.866;2023-03-04T03:17:59;100116.22;;;-0.59;40.85
19795;BME280;10057;59.402;17.866;2023-03-04T03:20:25;100121.44;;;-0.57;40.82
19795;BME280;10057;59.402;17.866;2023-03-04T03:22:52;100108.41;;;-0.62;40.88
19795;BME280;10057;59.402;17.866;2023-03-04T03:25:19;100111.91;;;-0.63;41.04
19795;BME280;10057;59.402;17.866;2023-03-04T03:27:45;100101.47;;;-0.66;40.75
19795;BME280;10057;59.402;17.866;2023-03-04T03:30:14;100114.50;;;-0.69;40.58
19795;BME280;10057;59.402;17.866;2023-03-04T03:32:40;100098.88;;;-0.72;40.66
19795;BME280;10057;59.402;17.866;2023-03-04T03:35:08;100113.66;;;-0.71;40.47
19795;BME280;10057;59.402;17.866;2023-03-04T03:37:35;100116.25;;;-0.73;39.80
19795;BME280;10057;59.402;17.866;2023-03-04T03:40:03;100127.56;;;-0.75;40.20
19795;BME280;10057;59.402;17.866;2023-03-04T03:42:29;100120.59;;;-0.81;38.81
19795;BME280;10057;59.402;17.866;2023-03-04T03:44:56;100107.59;;;-0.88;38.74
19795;BME280;10057;59.402;17.866;2023-03-04T03:47:23;100100.63;;;-0.92;39.11
19795;BME280;10057;59.402;17.866;2023-03-04T03:49:49;100110.19;;;-1.01;38.29
19795;BME280;10057;59.402;17.866;2023-03-04T03:52:16;100117.13;;;-1.07;37.94
19795;BME280;10057;59.402;17.866;2023-03-04T03:54:43;100099.78;;;-1.14;37.95
19795;BME280;10057;59.402;17.866;2023-03-04T03:57:10;100120.59;;;-1.17;38.28
19795;BME280;10057;59.402;17.866;2023-03-04T03:59:36;100118.88;;;-1.18;38.94
19795;BME280;10057;59.402;17.866;2023-03-04T04:02:03;100122.34;;;-1.21;38.38
19795;BME280;10057;59.402;17.866;2023-03-04T04:04:30;100108.44;;;-1.28;38.24
19795;BME280;10057;59.402;17.866;2023-03-04T04:06:57;100136.19;;;-1.27;37.76
19795;BME280;10057;59.402;17.866;2023-03-04T04:09:23;100125.78;;;-1.34;38.27
19795;BME280;10057;59.402;17.866;2023-03-04T04:11:50;100127.53;;;-1.35;38.53
19795;BME280;10057;59.402;17.866;2023-03-04T04:14:16;100115.38;;;-1.40;38.76
19795;BME280;10057;59.402;17.866;2023-03-04T04:16:43;100138.78;;;-1.45;37.94
19795;BME280;10057;59.402;17.866;2023-03-04T04:19:16;100119.69;;;-1.52;38.32
19795;BME280;10057;59.402;17.866;2023-03-04T04:21:44;100126.63;;;-1.55;38.00
19795;BME280;10057;59.402;17.866;2023-03-04T04:24:11;100112.72;;;-1.62;37.72
19795;BME280;10057;59.402;17.866;2023-03-04T04:26:38;100109.28;;;-1.64;37.31
19795;BME280;10057;59.402;17.866;2023-03-04T04:29:05;100114.47;;;-1.67;37.73
19795;BME280;10057;59.402;17.866;2023-03-04T04:31:33;100130.06;;;-1.70;36.31
19795;BME280;10057;59.402;17.866;2023-03-04T04:33:59;100119.66;;;-1.70;36.91
19795;BME280;10057;59.402;17.866;2023-03-04T04:36:26;100124.00;;;-1.71;37.70
19795;BME280;10057;59.402;17.866;2023-03-04T04:38:53;100119.63;;;-1.72;37.35
19795;BME280;10057;59.402;17.866;2023-03-04T04:41:25;100118.78;;;-1.74;37.61
19795;BME280;10057;59.402;17.866;2023-03-04T04:43:52;100110.09;;;-1.76;38.12
19795;BME280;10057;59.402;17.866;2023-03-04T04:46:19;100121.34;;;-1.80;37.88
19795;BME280;10057;59.402;17.866;2023-03-04T04:48:46;100127.44;;;-1.78;38.37
19795;BME280;10057;59.402;17.866;2023-03-04T04:51:13;100145.63;;;-1.76;38.10
19795;BME280;10057;59.402;17.866;2023-03-04T04:53:40;100134.38;;;-1.75;38.53
19795;BME280;10057;59.402;17.866;2023-03-04T04:56:11;100126.56;;;-1.75;38.43
19795;BME280;10057;59.402;17.866;2023-03-04T04:58:38;100145.63;;;-1.76;38.91
19795;BME280;10057;59.402;17.866;2023-03-04T05:01:05;100175.09;;;-1.79;38.56
19795;BME280;10057;59.402;17.866;2023-03-04T05:03:33;100135.19;;;-1.85;37.93
19795;BME280;10057;59.402;17.866;2023-03-04T05:06:00;100162.91;;;-1.89;37.85
19795;BME280;10057;59.402;17.866;2023-03-04T05:08:28;100140.38;;;-1.95;37.79
19795;BME280;10057;59.402;17.866;2023-03-04T05:10:54;100140.34;;;-1.99;37.11
19795;BME280;10057;59.402;17.866;2023-03-04T05:13:21;100149.00;;;-2.02;37.04
19795;BME280;10057;59.402;17.866;2023-03-04T05:15:50;100142.06;;;-2.06;38.06
19795;BME280;10057;59.402;17.866;2023-03-04T05:18:20;100141.19;;;-2.03;37.61
19795;BME280;10057;59.402;17.866;2023-03-04T05:20:58;100150.69;;;-2.13;36.32
19795;BME280;10057;59.402;17.866;2023-03-04T05:23:26;100167.13;;;-2.19;37.41
19795;BME280;10057;59.402;17.866;2023-03-04T05:25:54;100185.31;;;-2.20;37.29
19795;BME280;10057;59.402;17.866;2023-03-04T05:28:20;100169.69;;;-2.23;36.65
19795;BME280;10057;59.402;17.866;2023-03-04T05:30:47;100181.81;;;-2.25;37.35
19795;BME280;10057;59.402;17.866;2023-03-04T05:33:15;100166.22;;;-2.28;37.16
19795;BME280;10057;59.402;17.866;2023-03-04T05:35:43;100173.13;;;-2.30;37.33
19795;BME280;10057;59.402;17.866;2023-03-04T05:38:12;100181.75;;;-2.33;37.35
19795;BME280;10057;59.402;17.866;2023-03-04T05:40:40;100162.69;;;-2.33;37.42
19795;BME280;10057;59.402;17.866;2023-03-04T05:43:08;100168.78;;;-2.31;37.61
19795;BME280;10057;59.402;17.866;2023-03-04T05:45:35;100181.81;;;-2.28;37.86
19795;BME280;10057;59.402;17.866;2023-03-04T05:48:02;100171.38;;;-2.31;37.57
19795;BME280;10057;59.402;17.866;2023-03-04T05:50:30;100180.91;;;-2.30;37.86
19795;BME280;10057;59.402;17.866;2023-03-04T05:52:56;100184.38;;;-2.31;37.91
19795;BME280;10057;59.402;17.866;2023-03-04T05:55:24;100191.34;;;-2.29;37.80
19795;BME280;10057;59.402;17.866;2023-03-04T05:57:50;100187.00;;;-2.28;38.28
19795;BME280;10057;59.402;17.866;2023-03-04T06:00:17;100196.50;;;-2.30;38.63
19795;BME280;10057;59.402;17.866;2023-03-04T06:02:44;100200.81;;;-2.35;38.09
19795;BME280;10057;59.402;17.866;2023-03-04T06:05:12;100201.63;;;-2.41;38.13
19795;BME280;10057;59.402;17.866;2023-03-04T06:07:41;100202.47;;;-2.45;38.68
19795;BME280;10057;59.402;17.866;2023-03-04T06:10:13;100215.50;;;-2.42;38.36
19795;BME280;10057;59.402;17.866;2023-03-04T06:12:41;100197.31;;;-2.42;38.51
19795;BME280;10057;59.402;17.866;2023-03-04T06:15:08;100212.84;;;-2.47;39.13
19795;BME280;10057;59.402;17.866;2023-03-04T06:17:36;100207.66;;;-2.45;39.05
19795;BME280;10057;59.402;17.866;2023-03-04T06:20:07;100222.41;;;-2.40;39.31
19795;BME280;10057;59.402;17.866;2023-03-04T06:22:34;100208.56;;;-2.40;38.94
19795;BME280;10057;59.402;17.866;2023-03-04T06:25:01;100205.91;;;-2.46;39.07
19795;BME280;10057;59.402;17.866;2023-03-04T06:27:28;100215.38;;;-2.54;39.27
19795;BME280;10057;59.402;17.866;2023-03-04T06:29:55;100234.47;;;-2.52;39.64
19795;BME280;10057;59.402;17.866;2023-03-04T06:32:22;100224.09;;;-2.49;39.38
19795;BME280;10057;59.402;17.866;2023-03-04T06:34:49;100214.59;;;-2.46;39.90
19795;BME280;10057;59.402;17.866;2023-03-04T06:37:15;100229.31;;;-2.45;39.81
19795;BME280;10057;59.402;17.866;2023-03-04T06:39:42;100231.91;;;-2.45;39.68
19795;BME280;10057;59.402;17.866;2023-03-04T06:42:09;100241.44;;;-2.44;39.77
19795;BME280;10057;59.402;17.866;2023-03-04T06:44:36;100238.88;;;-2.41;40.03
19795;BME280;10057;59.402;17.866;2023-03-04T06:47:03;100231.94;;;-2.40;39.79
19795;BME280;10057;59.402;17.866;2023-03-04T06:49:30;100242.34;;;-2.39;40.16
19795;BME280;10057;59.402;17.866;2023-03-04T06:51:57;100236.28;;;-2.42;40.34
19795;BME280;10057;59.402;17.866;2023-03-04T06:54:23;100240.59;;;-2.41;39.93
19795;BME280;10057;59.402;17.866;2023-03-04T06:56:50;100241.50;;;-2.39;40.46
19795;BME280;10057;59.402;17.866;2023-03-04T06:59:17;100245.81;;;-2.36;40.24
19795;BME280;10057;59.402;17.866;2023-03-04T07:01:43;100233.69;;;-2.38;40.82
19795;BME280;10057;59.402;17.866;2023-03-04T07:04:12;100244.97;;;-2.35;39.93
19795;BME280;10057;59.402;17.866;2023-03-04T07:06:39;100248.41;;;-2.38;40.53
19795;BME280;10057;59.402;17.866;2023-03-04T07:09:06;100260.50;;;-2.40;40.24
19795;BME280;10057;59.402;17.866;2023-03-04T07:11:32;100260.47;;;-2.48;40.59
19795;BME280;10057;59.402;17.866;2023-03-04T07:13:59;100248.38;;;-2.44;40.81
19795;BME280;10057;59.402;17.866;2023-03-04T07:16:26;100255.31;;;-2.42;41.08
19795;BME280;10057;59.402;17.866;2023-03-04T07:18:52;100260.53;;;-2.37;40.99
19795;BME280;10057;59.402;17.866;2023-03-04T07:21:19;100252.75;;;-2.37;40.86
19795;BME280;10057;59.402;17.866;2023-03-04T07:23:46;100254.50;;;-2.33;40.91
19795;BME280;10057;59.402;17.866;2023-03-04T07:26:13;100264.91;;;-2.34;40.92
19795;BME280;10057;59.402;17.866;2023-03-04T07:28:40;100263.19;;;-2.29;40.96
19795;BME280;10057;59.402;17.866;2023-03-04T07:31:23;100263.19;;;-2.29;41.35
19795;BME280;10057;59.402;17.866;2023-03-04T07:33:50;100262.38;;;-2.24;41.29
19795;BME280;10057;59.402;17.866;2023-03-04T07:36:17;100258.03;;;-2.23;40.76
19795;BME280;10057;59.402;17.866;2023-03-04T07:38:48;100264.06;;;-2.30;41.00
19795;BME280;10057;59.402;17.866;2023-03-04T07:41:16;100272.72;;;-2.30;40.95
19795;BME280;10057;59.402;17.866;2023-03-04T07:43:43;100271.00;;;-2.26;41.10
19795;BME280;10057;59.402;17.866;2023-03-04T07:46:10;100274.50;;;-2.24;40.90
19795;BME280;10057;59.402;17.866;2023-03-04T07:48:36;100282.34;;;-2.18;41.56
19795;BME280;10057;59.402;17.866;2023-03-04T07:51:06;100267.66;;;-2.13;41.07
19795;BME280;10057;59.402;17.866;2023-03-04T07:53:33;100275.44;;;-2.15;40.61
19795;BME280;10057;59.402;17.866;2023-03-04T07:56:00;100276.28;;;-2.16;40.83
19795;BME280;10057;59.402;17.866;2023-03-04T07:58:28;100270.25;;;-2.13;40.95
19795;BME280;10057;59.402;17.866;2023-03-04T08:00:55;100313.59;;;-2.10;40.86
19795;BME280;10057;59.402;17.866;2023-03-04T08:03:21;100278.03;;;-2.15;40.77
19795;BME280;10057;59.402;17.866;2023-03-04T08:05:48;100275.44;;;-2.13;41.11
19795;BME280;10057;59.402;17.866;2023-03-04T08:08:15;100275.50;;;-2.04;41.17
19795;BME280;10057;59.402;17.866;2023-03-04T08:10:43;100298.91;;;-2.04;41.27
19795;BME280;10057;59.402;17.866;2023-03-04T08:13:10;100279.88;;;-2.01;41.18
19795;BME280;10057;59.402;17.866;2023-03-04T08:15:40;100266.00;;;-1.99;41.07
19795;BME280;10057;59.402;17.866;2023-03-04T08:18:08;100285.97;;;-1.98;40.89
19795;BME280;10057;59.402;17.866;2023-03-04T08:20:34;100285.09;;;-1.95;41.00
19795;BME280;10057;59.402;17.866;2023-03-04T08:23:01;100292.03;;;-1.93;41.33
19795;BME280;10057;59.402;17.866;2023-03-04T08:25:28;100288.63;;;-1.87;40.75
19795;BME280;10057;59.402;17.866;2023-03-04T08:27:55;100284.34;;;-1.80;41.06
19795;BME280;10057;59.402;17.866;2023-03-04T08:30:21;100289.56;;;-1.77;41.04
19795;BME280;10057;59.402;17.866;2023-03-04T08:32:48;100301.69;;;-1.75;40.69
19795;BME280;10057;59.402;17.866;2023-03-04T08:35:15;100300.88;;;-1.71;40.77
19795;BME280;10057;59.402;17.866;2023-03-04T08:37:42;100306.06;;;-1.64;40.96
19795;BME280;10057;59.402;17.866;2023-03-04T08:40:09;100304.34;;;-1.61;41.16
19795;BME280;10057;59.402;17.866;2023-03-04T08:42:36;100317.44;;;-1.49;41.31
19795;BME280;10057;59.402;17.866;2023-03-04T08:45:03;100314.88;;;-1.42;40.62
19795;BME280;10057;59.402;17.866;2023-03-04T08:47:30;100312.31;;;-1.36;40.87
19795;BME280;10057;59.402;17.866;2023-03-04T08:49:56;100321.88;;;-1.25;40.84
19795;BME280;10057;59.402;17.866;2023-03-04T08:52:24;100326.22;;;-1.28;40.75
19795;BME280;10057;59.402;17.866;2023-03-04T08:54:50;100339.28;;;-1.19;41.18
19795;BME280;10057;59.402;17.866;2023-03-04T08:57:17;100323.66;;;-1.14;41.18
19795;BME280;10057;59.402;17.866;2023-03-04T08:59:44;100322.81;;;-1.07;40.97
19795;BME280;10057;59.402;17.866;2023-03-04T09:02:10;100338.47;;;-1.06;41.08
19795;BME280;10057;59.402;17.866;2023-03-04T09:04:37;100336.72;;;-1.07;41.38
19795;BME280;10057;59.402;17.866;2023-03-04T09:07:04;100325.44;;;-1.06;41.26
19795;BME280;10057;59.402;17.866;2023-03-04T09:09:31;100331.50;;;-1.04;41.75
19795;BME280;10057;59.402;17.866;2023-03-04T09:11:57;100335.84;;;-1.12;41.26
19795;BME280;10057;59.402;17.866;2023-03-04T09:14:24;100331.47;;;-1.13;41.62
19795;BME280;10057;59.402;17.866;2023-03-04T09:16:51;100322.84;;;-1.06;41.99
19795;BME280;10057;59.402;17.866;2023-03-04T09:19:17;100321.13;;;-0.99;41.84
19795;BME280;10057;59.402;17.866;2023-03-04T09:21:44;100316.78;;;-0.92;41.97
19795;BME280;10057;59.402;17.866;2023-03-04T09:24:11;100328.09;;;-0.86;41.77
19795;BME280;10057;59.402;17.866;2023-03-04T09:26:37;100326.38;;;-0.79;42.08
19795;BME280;10057;59.402;17.866;2023-03-04T09:29:04;100318.59;;;-0.70;41.65
19795;BME280;10057;59.402;17.866;2023-03-04T09:31:32;100325.53;;;-0.69;41.64
19795;BME280;10057;59.402;17.866;2023-03-04T09:33:59;100330.72;;;-0.72;41.51
19795;BME280;10057;59.402;17.866;2023-03-04T09:36:25;100303.84;;;-0.68;41.42
19795;BME280;10057;59.402;17.866;2023-03-04T09:38:52;100323.78;;;-0.68;41.31
19795;BME280;10057;59.402;17.866;2023-03-04T09:41:23;100317.72;;;-0.66;41.77
19795;BME280;10057;59.402;17.866;2023-03-04T09:43:52;100321.22;;;-0.45;41.69
19795;BME280;10057;59.402;17.866;2023-03-04T09:46:33;100321.22;;;-0.39;41.47
19795;BME280;10057;59.402;17.866;2023-03-04T09:49:01;100319.47;;;-0.45;41.43
19795;BME280;10057;59.402;17.866;2023-03-04T09:51:43;100320.34;;;-0.35;41.53
19795;BME280;10057;59.402;17.866;2023-03-04T09:54:28;100349.03;;;-0.32;41.92
19795;BME280;10057;59.402;17.866;2023-03-04T09:57:29;100315.16;;;-0.11;42.30
19795;BME280;10057;59.402;17.866;2023-03-04T10:00:09;100315.16;;;0.14;42.35
19795;BME280;10057;59.402;17.866;2023-03-04T10:02:55;100325.50;;;0.37;42.13
19795;BME280;10057;59.402;17.866;2023-03-04T10:05:29;100325.53;;;0.23;41.42
19795;BME280;10057;59.402;17.866;2023-03-04T10:08:01;100333.38;;;0.23;41.97
19795;BME280;10057;59.402;17.866;2023-03-04T10:10:36;100342.06;;;0.28;42.08
19795;BME280;10057;59.402;17.866;2023-03-04T10:13:12;100328.16;;;0.32;42.23
19795;BME280;10057;59.402;17.866;2023-03-04T10:15:42;100328.97;;;0.43;42.39
19795;BME280;10057;59.402;17.866;2023-03-04T10:18:23;100328.94;;;0.62;42.61
19795;BME280;10057;59.402;17.866;2023-03-04T10:20:55;100323.69;;;0.71;42.02
19795;BME280;10057;59.402;17.866;2023-03-04T10:23:26;100330.66;;;0.72;42.17
19795;BME280;10057;59.402;17.866;2023-03-04T10:25:54;100328.91;;;0.76;42.61
19795;BME280;10057;59.402;17.866;2023-03-04T10:28:26;100321.00;;;0.89;42.75
19795;BME280;10057;59.402;17.866;2023-03-04T10:33:32;100340.16;;;0.87;42.06
19795;BME280;10057;59.402;17.866;2023-03-04T10:36:05;100334.94;;;0.87;42.74
19795;BME280;10057;59.402;17.866;2023-03-04T10:38:38;100326.16;;;0.99;43.03
19795;BME280;10057;59.402;17.866;2023-03-04T10:41:17;100335.69;;;1.09;42.53
19795;BME280;10057;59.402;17.866;2023-03-04T10:43:50;100329.66;;;1.04;42.65
19795;BME280;10057;59.402;17.866;2023-03-04T10:46:25;100341.00;;;1.00;42.31
19795;BME280;10057;59.402;17.866;2023-03-04T10:48:53;100337.50;;;1.01;42.72
19795;BME280;10057;59.402;17.866;2023-03-04T10:51:22;100332.19;;;1.16;43.29
19795;BME280;10057;59.402;17.866;2023-03-04T10:54:36;100332.09;;;1.31;43.09
19795;BME280;10057;59.402;17.866;2023-03-04T10:57:03;100345.16;;;1.37;43.08
19795;BME280;10057;59.402;17.866;2023-03-04T11:02:24;100334.63;;;1.47;42.15
19795;BME280;10057;59.402;17.866;2023-03-04T11:05:14;100335.53;;;1.36;42.55
19795;BME280;10057;59.402;17.866;2023-03-04T11:07:51;100340.75;;;1.42;43.10
19795;BME280;10057;59.402;17.866;2023-03-04T11:18:21;100329.00;;;2.02;42.17
19795;BME280;10057;59.402;17.866;2023-03-04T11:20:50;100328.16;;;1.94;42.34
19795;BME280;10057;59.402;17.866;2023-03-04T11:23:24;100319.47;;;1.93;42.31
19795;BME280;10057;59.402;17.866;2023-03-04T11:26:02;100318.66;;;1.85;42.68
19795;BME280;10057;59.402;17.866;2023-03-04T11:28:41;100331.78;;;1.77;42.36
19795;BME280;10057;59.402;17.866;2023-03-04T11:31:38;100327.50;;;1.67;42.57
19795;BME280;10057;59.402;17.866;2023-03-04T11:44:58;100333.25;;;2.10;42.50
19795;BME280;10057;59.402;17.866;2023-03-04T11:50:47;100329.63;;;2.27;42.10
19795;BME280;10057;59.402;17.866;2023-03-04T11:53:24;100310.38;;;2.31;42.25
19795;BME280;10057;59.402;17.866;2023-03-04T11:58:56;100321.53;;;2.50;42.44
19795;BME280;10057;59.402;17.866;2023-03-04T12:01:35;100305.72;;;2.56;42.12
19795;BME280;10057;59.402;17.866;2023-03-04T12:10:01;100307.56;;;2.51;41.99
19795;BME280;10057;59.402;17.866;2023-03-04T12:15:19;100311.06;;;2.48;41.85
19795;BME280;10057;59.402;17.866;2023-03-04T12:20:50;100319.13;;;2.28;41.86
19795;BME280;10057;59.402;17.866;2023-03-04T12:26:15;100310.41;;;2.29;41.72
19795;BME280;10057;59.402;17.866;2023-03-04T12:28:59;100309.59;;;2.21;41.34
19795;BME280;10057;59.402;17.866;2023-03-04T12:31:41;100320.19;;;2.12;41.31
19795;BME280;10057;59.402;17.866;2023-03-04T12:39:50;100304.38;;;2.18;41.72
19795;BME280;10057;59.402;17.866;2023-03-04T12:48:08;100314.81;;;2.24;41.70
19795;BME280;10057;59.402;17.866;2023-03-04T12:50:41;100309.59;;;2.21;42.07
19795;BME280;10057;59.402;17.866;2023-03-04T12:55:49;100341.88;;;2.19;41.64
19795;BME280;10057;59.402;17.866;2023-03-04T12:58:21;100312.31;;;2.10;41.88
19795;BME280;10057;59.402;17.866;2023-03-04T13:01:10;100309.72;;;2.09;42.10
19795;BME280;10057;59.402;17.866;2023-03-04T13:04:08;100316.63;;;2.19;42.54
19795;BME280;10057;59.402;17.866;2023-03-04T13:06:59;100324.47;;;2.18;42.61
19795;BME280;10057;59.402;17.866;2023-03-04T13:09:35;100319.16;;;2.22;42.61
19795;BME280;10057;59.402;17.866;2023-03-04T13:12:13;100329.63;;;2.27;42.89
19795;BME280;10057;59.402;17.866;2023-03-04T13:17:42;100330.56;;;2.20;42.94
19795;BME280;10057;59.402;17.866;2023-03-04T13:22:55;100345.53;;;2.05;43.45
19795;BME280;10057;59.402;17.866;2023-03-04T14:02:21;100367.72;;;1.51;47.10
19795;BME280;10057;59.402;17.866;2023-03-04T14:04:44;100362.53;;;1.41;47.99
19795;BME280;10057;59.402;17.866;2023-03-04T14:07:34;100355.63;;;1.34;48.31
19795;BME280;10057;59.402;17.866;2023-03-04T14:12:48;100351.31;;;1.19;48.71
19795;BME280;10057;59.402;17.866;2023-03-04T14:17:48;100359.16;;;1.23;49.11
19795;BME280;10057;59.402;17.866;2023-03-04T14:22:56;100361.78;;;1.18;49.25
19795;BME280;10057;59.402;17.866;2023-03-04T14:25:27;100366.13;;;1.24;49.33
19795;BME280;10057;59.402;17.866;2023-03-04T14:28:13;100357.44;;;1.20;49.50
19795;BME280;10057;59.402;17.866;2023-03-04T14:30:40;100360.03;;;1.18;49.17
19795;BME280;10057;59.402;17.866;2023-03-04T14:33:15;100358.31;;;1.17;49.64
19795;BME280;10057;59.402;17.866;2023-03-04T14:35:48;100349.63;;;1.11;49.59
19795;BME280;10057;59.402;17.866;2023-03-04T14:38:36;100351.38;;;1.09;49.63
19795;BME280;10057;59.402;17.866;2023-03-04T14:41:09;100351.41;;;1.01;49.61
19795;BME280;10057;59.402;17.866;2023-03-04T14:43:53;100348.84;;;0.97;49.71
19795;BME280;10057;59.402;17.866;2023-03-04T14:46:22;100345.38;;;0.96;49.89
19795;BME280;10057;59.402;17.866;2023-03-04T14:48:54;100334.91;;;0.94;50.02
19795;BME280;10057;59.402;17.866;2023-03-04T14:54:27;100337.47;;;0.99;49.60